KMHE/MHE METAR and TAF weather

Enter ICAO airport designator
Station Type Date Time Source
KMHE METAR 2019/12/09 00:05 UTC NOAA

KMHE 090005Z AUTO 12011KT 1 3/4SM BR OVC002 M01/M02 A2967 RMK AO2 I1000 T10061017


Station Type Date Time Source
KMHE Decoded METAR 2019/12/09 00:05 UTC NOAA

MITCHELL MUNICIPAL AIRPORT, SD, United States (KMHE) 43-46N 98-02W
Dec 08, 2019 - 07:05 PM EST / 2019.12.09 0005 UTC
Wind: from the ESE (120 degrees) at 13 MPH (11 KT):0
Visibility: 1 3/4 mile(s):0
Sky conditions: overcast
Weather: mist
Temperature: 30.9 F (-0.6 C)
Windchill: 21 F (-6 C):1
Dew Point: 28.9 F (-1.7 C)
Relative Humidity: 92%
Pressure (altimeter): 29.67 in. Hg (1004 hPa)
ob: KMHE 090005Z AUTO 12011KT 1 3/4SM BR OVC002 M01/M02 A2967 RMK AO2 I1000 T10061017
cycle: 0

Station Type Date Time Source
KMHE TAF UTC NOAA

Error!

Example: see airport list